Time;durP1;ratioP1;P1;durP2;ratioP2;P2;SDS_P1;SDS_P2;PMS_P1;PMS_P2;Temp;Humidity;BMP_temperature;BMP_pressure;BME280_temperature;BME280_humidity;BME280_pressure;Samples;Min_cycle;Max_cycle;Signal;HPM_P1;HPM_P2
2021/11/20 00:02:13;;;;;;;7.50;6.45;;;;;;;;;;5055000;28;20225;-83
2021/11/20 00:04:41;;;;;;;8.13;7.43;;;;;;;;;;5055569;28;20190;-84
2021/11/20 00:07:09;;;;;;;9.07;6.95;;;;;;;;;;5054726;28;20277;-84
2021/11/20 00:09:37;;;;;;;8.23;7.43;;;;;;;;;;5055343;28;20272;-84
2021/11/20 00:12:10;;;;;;;8.45;7.72;;;;;;;;;;5055110;28;20198;-84
2021/11/20 00:14:37;;;;;;;8.18;7.38;;;;;;;;;;5054937;28;20222;-84
2021/11/20 00:17:07;;;;;;;8.13;7.32;;;;;;;;;;5054965;28;20615;-84
2021/11/20 00:19:36;;;;;;;8.80;7.78;;;;;;;;;;5055408;28;20261;-84
2021/11/20 00:22:10;;;;;;;7.88;6.90;;;;;;;;;;5055113;28;20190;-84
2021/11/20 00:24:41;;;;;;;10.63;8.98;;;;;;;;;;5054485;28;20229;-84
2021/11/20 00:27:17;;;;;;;9.85;8.30;;;;;;;;;;5054644;28;20222;-84
2021/11/20 00:29:47;;;;;;;10.38;9.35;;;;;;;;;;5054777;28;20224;-83
2021/11/20 00:32:21;;;;;;;9.45;8.48;;;;;;;;;;5055635;28;20232;-84
2021/11/20 00:34:49;;;;;;;8.20;7.35;;;;;;;;;;5053679;28;20652;-84
2021/11/20 00:37:17;;;;;;;9.35;8.40;;;;;;;;;;5055020;28;20678;-83
2021/11/20 00:39:44;;;;;;;10.07;9.07;;;;;;;;;;5054133;28;20312;-83
2021/11/20 00:42:13;;;;;;;10.65;9.50;;;;;;;;;;5053642;28;20292;-84
2021/11/20 00:44:41;;;;;;;11.27;10.07;;;;;;;;;;5054775;28;20244;-83
2021/11/20 00:47:09;;;;;;;10.35;9.45;;;;;;;;;;5054998;28;20209;-83
2021/11/20 00:49:38;;;;;;;9.77;8.85;;;;;;;;;;5054041;28;20252;-84
2021/11/20 00:52:07;;;;;;;6.97;6.38;;;;;;;;;;5055404;28;20225;-84
2021/11/20 00:54:39;;;;;;;9.10;7.80;;;;;;;;;;5055418;28;20228;-84
2021/11/20 00:57:07;;;;;;;8.02;7.22;;;;;;;;;;5054400;28;20225;-84
2021/11/20 00:59:35;;;;;;;8.60;7.72;;;;;;;;;;5054860;28;20317;-83
2021/11/20 01:02:05;;;;;;;10.02;7.85;;;;;;;;;;5054405;28;20228;-83
2021/11/20 01:04:34;;;;;;;8.35;7.47;;;;;;;;;;5055018;28;20252;-84
2021/11/20 01:07:04;;;;;;;9.15;7.68;;;;;;;;;;5054911;28;20224;-83
2021/11/20 01:09:35;;;;;;;6.45;5.53;;;;;;;;;;5054570;28;20308;-84
2021/11/20 01:12:08;;;;;;;7.13;6.47;;;;;;;;;;5058428;28;20293;-84
2021/11/20 01:14:36;;;;;;;7.88;7.10;;;;;;;;;;5058202;28;20222;-84
2021/11/20 01:17:07;;;;;;;6.60;5.93;;;;;;;;;;5058989;28;20201;-83
2021/11/20 01:19:35;;;;;;;6.30;5.70;;;;;;;;;;5057740;28;20730;-84
2021/11/20 01:22:08;;;;;;;6.20;5.68;;;;;;;;;;5057788;28;20222;-84
2021/11/20 01:24:36;;;;;;;7.03;6.43;;;;;;;;;;5058563;28;20221;-84
2021/11/20 01:27:04;;;;;;;9.52;7.47;;;;;;;;;;5057932;28;20277;-83
2021/11/20 01:29:31;;;;;;;5.30;4.68;;;;;;;;;;5058138;28;20301;-82
2021/11/20 01:31:59;;;;;;;6.43;5.82;;;;;;;;;;5057472;28;20252;-83
2021/11/20 01:34:28;;;;;;;6.90;5.45;;;;;;;;;;5057927;28;20260;-84
2021/11/20 01:37:00;;;;;;;6.03;5.47;;;;;;;;;;5058238;28;20233;-84
2021/11/20 01:39:32;;;;;;;5.07;4.57;;;;;;;;;;5057795;28;20317;-84
2021/11/20 01:42:03;;;;;;;5.32;4.82;;;;;;;;;;5057235;28;20217;-83
2021/11/20 01:44:35;;;;;;;5.53;4.75;;;;;;;;;;5057528;28;20222;-84
2021/11/20 01:47:14;;;;;;;4.63;4.22;;;;;;;;;;5057340;28;20668;-84
2021/11/20 01:49:44;;;;;;;4.38;3.97;;;;;;;;;;5057969;28;20252;-84
2021/11/20 01:52:17;;;;;;;4.47;4.07;;;;;;;;;;5057613;28;20225;-83
2021/11/20 01:54:58;;;;;;;6.07;4.70;;;;;;;;;;5057217;28;20228;-83
2021/11/20 01:57:31;;;;;;;2.90;2.67;;;;;;;;;;5057564;28;20197;-84
2021/11/20 02:00:09;;;;;;;4.18;3.83;;;;;;;;;;5057256;28;20317;-83
2021/11/20 02:02:40;;;;;;;3.60;3.30;;;;;;;;;;5056812;28;20224;-83
2021/11/20 02:05:13;;;;;;;3.45;3.17;;;;;;;;;;5057606;28;20630;-83
2021/11/20 02:07:45;;;;;;;3.95;3.65;;;;;;;;;;5056879;28;20221;-84
2021/11/20 02:10:20;;;;;;;3.22;2.70;;;;;;;;;;5056919;28;20677;-83
2021/11/20 02:12:52;;;;;;;5.53;5.07;;;;;;;;;;5056900;28;20250;-83
2021/11/20 02:15:26;;;;;;;4.63;4.22;;;;;;;;;;5056917;28;20575;-84
2021/11/20 02:17:57;;;;;;;3.25;3.00;;;;;;;;;;5057346;28;20225;-83
2021/11/20 02:20:42;;;;;;;3.90;3.60;;;;;;;;;;5057160;28;20687;-84
2021/11/20 02:23:09;;;;;;;2.97;2.67;;;;;;;;;;5056658;28;20214;-84
2021/11/20 02:25:36;;;;;;;4.85;4.38;;;;;;;;;;5056524;28;20186;-83
2021/11/20 02:28:07;;;;;;;3.83;3.53;;;;;;;;;;5055853;28;20626;-83
2021/11/20 02:30:38;;;;;;;7.25;5.07;;;;;;;;;;5055819;28;20770;-84
2021/11/20 02:33:08;;;;;;;3.97;3.67;;;;;;;;;;5056293;28;20213;-84
2021/11/20 02:35:40;;;;;;;4.10;3.70;;;;;;;;;;5056946;28;20656;-84
2021/11/20 02:38:13;;;;;;;4.40;3.72;;;;;;;;;;5056546;28;20200;-83
2021/11/20 02:40:41;;;;;;;4.22;3.83;;;;;;;;;;5056312;28;20316;-83
2021/11/20 02:43:10;;;;;;;4.10;3.72;;;;;;;;;;5055762;28;20190;-83
2021/11/20 02:45:41;;;;;;;4.57;4.18;;;;;;;;;;5056413;28;20221;-83
2021/11/20 02:48:09;;;;;;;4.18;3.67;;;;;;;;;;5035961;28;20178;-84
2021/11/20 02:50:41;;;;;;;4.88;4.47;;;;;;;;;;5036375;28;20913;-84
2021/11/20 02:53:12;;;;;;;5.05;4.53;;;;;;;;;;5036095;28;20684;-84
2021/11/20 02:55:47;;;;;;;4.32;3.92;;;;;;;;;;5036314;28;20209;-83
2021/11/20 02:58:16;;;;;;;3.97;3.63;;;;;;;;;;5036437;28;20277;-83
2021/11/20 03:00:46;;;;;;;4.80;4.35;;;;;;;;;;5036222;28;20242;-83
2021/11/20 03:03:14;;;;;;;3.78;3.47;;;;;;;;;;5035539;28;20278;-83
2021/11/20 03:05:42;;;;;;;3.25;2.95;;;;;;;;;;5034905;28;20229;-83
2021/11/20 03:08:09;;;;;;;4.38;3.63;;;;;;;;;;5054052;28;20182;-84
2021/11/20 03:10:37;;;;;;;3.47;3.20;;;;;;;;;;5055099;28;20766;-84
2021/11/20 03:13:05;;;;;;;5.03;4.47;;;;;;;;;;5055332;28;20221;-83
2021/11/20 03:15:32;;;;;;;4.28;3.92;;;;;;;;;;5055429;28;20222;-83
2021/11/20 03:18:01;;;;;;;3.88;3.58;;;;;;;;;;5054408;28;20229;-83
2021/11/20 03:20:31;;;;;;;3.33;3.03;;;;;;;;;;5054291;28;20257;-83
2021/11/20 03:23:01;;;;;;;2.72;2.47;;;;;;;;;;5054972;28;20651;-83
2021/11/20 03:25:30;;;;;;;2.70;2.50;;;;;;;;;;5055074;28;20273;-83
2021/11/20 03:27:58;;;;;;;3.33;3.03;;;;;;;;;;5054528;28;20667;-84
2021/11/20 03:30:26;;;;;;;4.65;3.90;;;;;;;;;;5054921;28;20213;-84
2021/11/20 03:32:53;;;;;;;3.72;3.42;;;;;;;;;;5054509;28;20217;-84
2021/11/20 03:35:23;;;;;;;4.07;3.45;;;;;;;;;;5055367;28;20572;-84
2021/11/20 03:37:52;;;;;;;3.92;3.63;;;;;;;;;;5054979;28;20288;-83
2021/11/20 03:40:21;;;;;;;4.07;3.78;;;;;;;;;;5055435;28;20230;-85
2021/11/20 03:42:48;;;;;;;3.50;3.17;;;;;;;;;;5055821;28;20265;-84
2021/11/20 03:45:17;;;;;;;4.05;3.70;;;;;;;;;;5055024;28;20229;-84
2021/11/20 03:47:45;;;;;;;3.80;3.50;;;;;;;;;;5056055;28;20224;-84
2021/11/20 03:50:15;;;;;;;4.70;4.30;;;;;;;;;;5055497;28;20256;-84
2021/11/20 03:52:45;;;;;;;4.10;3.70;;;;;;;;;;5055143;28;20209;-84
2021/11/20 03:55:17;;;;;;;3.80;3.50;;;;;;;;;;5054890;28;20284;-84
2021/11/20 03:57:45;;;;;;;3.47;3.00;;;;;;;;;;5055125;28;20221;-84
2021/11/20 04:00:16;;;;;;;3.78;3.47;;;;;;;;;;5054970;28;20279;-84
2021/11/20 04:02:44;;;;;;;3.53;3.08;;;;;;;;;;5040266;28;20633;-84
2021/11/20 04:05:13;;;;;;;3.75;2.85;;;;;;;;;;5054951;28;20687;-84
2021/11/20 04:07:42;;;;;;;2.50;2.30;;;;;;;;;;5054786;28;20272;-84
2021/11/20 04:10:17;;;;;;;2.90;2.70;;;;;;;;;;5055684;28;20277;-85
2021/11/20 04:12:45;;;;;;;2.85;2.65;;;;;;;;;;5056213;28;20239;-85
2021/11/20 04:15:15;;;;;;;3.05;2.67;;;;;;;;;;5056005;28;20222;-84
2021/11/20 04:17:43;;;;;;;3.92;3.63;;;;;;;;;;5056080;28;20236;-84
2021/11/20 04:20:16;;;;;;;4.30;3.92;;;;;;;;;;5054840;28;20395;-84
2021/11/20 04:22:45;;;;;;;4.53;4.20;;;;;;;;;;5055198;28;20214;-84
2021/11/20 04:25:16;;;;;;;5.28;4.32;;;;;;;;;;5054791;28;20218;-83
2021/11/20 04:27:44;;;;;;;4.30;3.90;;;;;;;;;;5054969;28;20679;-84
2021/11/20 04:30:14;;;;;;;3.47;3.17;;;;;;;;;;5054795;28;20209;-84
2021/11/20 04:32:44;;;;;;;3.10;2.80;;;;;;;;;;5054634;28;20274;-84
2021/11/20 04:35:13;;;;;;;3.65;3.33;;;;;;;;;;5054948;28;20276;-84
2021/11/20 04:37:41;;;;;;;2.75;2.55;;;;;;;;;;5055150;28;20221;-84
2021/11/20 04:40:12;;;;;;;2.63;2.42;;;;;;;;;;5055712;28;20265;-84
2021/11/20 04:42:40;;;;;;;3.72;3.42;;;;;;;;;;5055179;28;20241;-84
2021/11/20 04:45:11;;;;;;;5.45;3.83;;;;;;;;;;5055062;28;20224;-84
2021/11/20 04:47:39;;;;;;;2.75;2.55;;;;;;;;;;5055553;28;20237;-84
2021/11/20 04:50:09;;;;;;;3.00;2.80;;;;;;;;;;5055418;28;20252;-84
2021/11/20 04:52:37;;;;;;;2.47;2.28;;;;;;;;;;5055611;28;20213;-84
2021/11/20 04:55:10;;;;;;;2.72;2.53;;;;;;;;;;5054687;28;20702;-85
2021/11/20 04:57:38;;;;;;;2.50;2.30;;;;;;;;;;5055506;28;20189;-84
2021/11/20 05:00:10;;;;;;;2.50;2.30;;;;;;;;;;5055083;28;20249;-84
2021/11/20 05:02:38;;;;;;;2.80;2.60;;;;;;;;;;5055296;28;20281;-84
2021/11/20 05:05:07;;;;;;;3.72;3.42;;;;;;;;;;5056648;28;20603;-83
2021/11/20 05:07:35;;;;;;;3.38;3.08;;;;;;;;;;5056036;28;20229;-84
2021/11/20 05:10:03;;;;;;;2.72;2.53;;;;;;;;;;5054072;28;20269;-84
2021/11/20 05:12:32;;;;;;;10.07;2.75;;;;;;;;;;5054300;28;20188;-84
2021/11/20 05:15:00;;;;;;;2.65;2.45;;;;;;;;;;5054238;28;20218;-84
2021/11/20 05:17:28;;;;;;;3.42;2.40;;;;;;;;;;5054238;28;20263;-84
2021/11/20 05:19:55;;;;;;;2.53;2.20;;;;;;;;;;5054222;28;20257;-84
2021/11/20 05:22:23;;;;;;;2.22;2.03;;;;;;;;;;5053928;28;20706;-83
2021/11/20 05:24:51;;;;;;;2.10;2.00;;;;;;;;;;5054033;28;20643;-84
2021/11/20 05:27:18;;;;;;;1.40;1.30;;;;;;;;;;5053481;28;20675;-84
2021/11/20 05:29:52;;;;;;;1.55;1.45;;;;;;;;;;5053271;28;20723;-84
2021/11/20 05:32:20;;;;;;;2.40;2.20;;;;;;;;;;5053382;28;20194;-84
2021/11/20 05:34:48;;;;;;;4.82;1.80;;;;;;;;;;5054599;28;20221;-84
2021/11/20 05:37:16;;;;;;;1.70;1.60;;;;;;;;;;5054772;28;20252;-84
2021/11/20 05:39:43;;;;;;;3.15;2.83;;;;;;;;;;5055731;28;20271;-83
2021/11/20 05:42:12;;;;;;;2.53;2.33;;;;;;;;;;5058279;28;20253;-84
2021/11/20 05:44:40;;;;;;;4.90;2.88;;;;;;;;;;5057904;28;20240;-84
2021/11/20 05:47:09;;;;;;;4.05;3.15;;;;;;;;;;5058267;28;20234;-85
2021/11/20 05:49:40;;;;;;;2.90;2.70;;;;;;;;;;5058680;28;20250;-85
2021/11/20 05:52:09;;;;;;;2.85;2.63;;;;;;;;;;5059524;28;20222;-85
2021/11/20 05:54:37;;;;;;;1.83;1.73;;;;;;;;;;5058143;28;20186;-85
2021/11/20 05:57:06;;;;;;;1.98;1.88;;;;;;;;;;5057523;28;20292;-85
2021/11/20 05:59:34;;;;;;;1.80;1.70;;;;;;;;;;5057102;28;20249;-85
2021/11/20 06:02:02;;;;;;;2.42;2.28;;;;;;;;;;5056839;28;20313;-86
2021/11/20 06:04:31;;;;;;;2.85;2.65;;;;;;;;;;5055735;28;20240;-86
2021/11/20 06:07:01;;;;;;;2.80;2.60;;;;;;;;;;5056043;28;20647;-85
2021/11/20 06:09:28;;;;;;;2.10;2.00;;;;;;;;;;5056760;28;20321;-84
2021/11/20 06:11:57;;;;;;;1.90;1.80;;;;;;;;;;5057983;28;20707;-85
2021/11/20 06:14:25;;;;;;;1.95;1.85;;;;;;;;;;5059045;28;20229;-85
2021/11/20 06:16:53;;;;;;;2.33;2.13;;;;;;;;;;5060073;28;20547;-85
2021/11/20 06:19:20;;;;;;;2.30;2.10;;;;;;;;;;5060261;28;20226;-83
2021/11/20 06:21:49;;;;;;;1.95;1.85;;;;;;;;;;5059311;28;20249;-85
2021/11/20 06:24:17;;;;;;;2.67;2.47;;;;;;;;;;5059651;28;20340;-85
2021/11/20 06:26:46;;;;;;;3.33;3.00;;;;;;;;;;5060374;28;20194;-85
2021/11/20 06:29:14;;;;;;;2.95;2.75;;;;;;;;;;5060871;28;20217;-85
2021/11/20 06:31:47;;;;;;;2.10;2.00;;;;;;;;;;5061647;28;20632;-84
2021/11/20 06:34:15;;;;;;;2.28;2.10;;;;;;;;;;5063059;28;20204;-84
2021/11/20 06:36:44;;;;;;;1.80;1.70;;;;;;;;;;5061470;28;20198;-85
2021/11/20 06:39:13;;;;;;;1.75;1.65;;;;;;;;;;5061059;28;20256;-85
2021/11/20 06:41:42;;;;;;;1.58;1.48;;;;;;;;;;5057262;28;20240;-85
2021/11/20 06:44:10;;;;;;;2.13;1.92;;;;;;;;;;5056727;28;20226;-86
2021/11/20 06:46:37;;;;;;;1.77;1.67;;;;;;;;;;5056867;28;20229;-86
2021/11/20 06:49:07;;;;;;;1.65;1.55;;;;;;;;;;5057324;28;20731;-86
2021/11/20 06:51:34;;;;;;;1.92;1.83;;;;;;;;;;5055028;28;20217;-85
2021/11/20 06:54:02;;;;;;;2.30;2.20;;;;;;;;;;5055010;28;20217;-85
2021/11/20 06:56:42;;;;;;;2.17;2.03;;;;;;;;;;5056327;28;20182;-84
2021/11/20 07:00:25;;;;;;;3.22;2.70;;;;;;;;;;5056534;28;20681;-86
2021/11/20 07:02:06;;;;;;;2.50;2.30;;;;;;;;;;5055782;28;20590;-85
2021/11/20 07:04:37;;;;;;;3.92;3.63;;;;;;;;;;5056254;28;20216;-85
2021/11/20 07:07:09;;;;;;;5.07;4.68;;;;;;;;;;5055647;28;20190;-85
2021/11/20 07:09:38;;;;;;;5.07;4.68;;;;;;;;;;5057214;28;20592;-85
2021/11/20 07:12:08;;;;;;;4.43;4.05;;;;;;;;;;5056934;28;20209;-85
2021/11/20 07:14:35;;;;;;;3.20;2.90;;;;;;;;;;5056347;28;20236;-85
2021/11/20 07:17:03;;;;;;;3.97;3.58;;;;;;;;;;5057597;28;20436;-86
2021/11/20 07:19:31;;;;;;;3.60;3.30;;;;;;;;;;5038404;28;20230;-85
2021/11/20 07:21:59;;;;;;;3.45;3.17;;;;;;;;;;5036781;28;20222;-85
2021/11/20 07:24:27;;;;;;;4.55;4.15;;;;;;;;;;5036930;28;20218;-84
2021/11/20 07:26:55;;;;;;;2.90;2.70;;;;;;;;;;5051351;28;20619;-84
2021/11/20 07:29:24;;;;;;;3.67;3.38;;;;;;;;;;5057226;28;20703;-85
2021/11/20 07:31:51;;;;;;;4.45;4.05;;;;;;;;;;5056495;28;20221;-84
2021/11/20 07:34:19;;;;;;;3.80;3.50;;;;;;;;;;5056333;28;20635;-84
2021/11/20 07:36:47;;;;;;;4.75;4.35;;;;;;;;;;5055640;28;20241;-84
2021/11/20 07:39:16;;;;;;;4.55;4.15;;;;;;;;;;5055949;28;20245;-84
2021/11/20 07:41:45;;;;;;;3.60;3.22;;;;;;;;;;5056180;28;20315;-84
2021/11/20 07:44:12;;;;;;;3.10;2.90;;;;;;;;;;5056346;28;20279;-83
2021/11/20 07:46:41;;;;;;;3.00;2.80;;;;;;;;;;5055589;28;20190;-84
2021/11/20 07:49:10;;;;;;;3.60;3.10;;;;;;;;;;5055655;28;20242;-83
2021/11/20 07:51:37;;;;;;;3.10;2.90;;;;;;;;;;5055399;28;20236;-84
2021/11/20 07:54:05;;;;;;;2.20;2.10;;;;;;;;;;5055992;28;20228;-84
2021/11/20 07:56:39;;;;;;;2.00;1.90;;;;;;;;;;5055459;28;20225;-83
2021/11/20 07:59:07;;;;;;;3.17;2.78;;;;;;;;;;5055828;28;20222;-84
2021/11/20 08:01:34;;;;;;;2.08;1.98;;;;;;;;;;5064491;28;20287;-84
2021/11/20 08:04:03;;;;;;;2.17;2.00;;;;;;;;;;5055880;28;20257;-84
2021/11/20 08:06:32;;;;;;;2.30;2.10;;;;;;;;;;5055536;28;20222;-83
2021/11/20 08:09:02;;;;;;;1.80;1.70;;;;;;;;;;5055532;28;20221;-84
2021/11/20 08:11:30;;;;;;;1.98;1.77;;;;;;;;;;5055068;28;20193;-84
2021/11/20 08:13:58;;;;;;;1.85;1.75;;;;;;;;;;5055987;28;20249;-84
2021/11/20 08:16:26;;;;;;;1.85;1.75;;;;;;;;;;5056164;28;20619;-84
2021/11/20 08:18:54;;;;;;;2.10;2.00;;;;;;;;;;5055040;28;20309;-84
2021/11/20 08:21:23;;;;;;;2.17;1.98;;;;;;;;;;5054420;28;20233;-83
2021/11/20 08:23:51;;;;;;;2.72;2.53;;;;;;;;;;5054936;28;20309;-84
2021/11/20 08:26:19;;;;;;;2.80;2.60;;;;;;;;;;5055161;28;20183;-84
2021/11/20 08:28:47;;;;;;;2.28;2.15;;;;;;;;;;5054776;28;20236;-84
2021/11/20 08:31:14;;;;;;;2.38;2.20;;;;;;;;;;5055180;28;20190;-84
2021/11/20 08:33:42;;;;;;;1.92;1.83;;;;;;;;;;5055004;28;20233;-85
2021/11/20 08:36:13;;;;;;;1.58;1.48;;;;;;;;;;5054993;28;20220;-84
2021/11/20 08:38:43;;;;;;;1.98;1.88;;;;;;;;;;5055737;28;20253;-84
2021/11/20 08:41:12;;;;;;;2.10;2.00;;;;;;;;;;5055181;28;20625;-84
2021/11/20 08:43:40;;;;;;;5.10;1.95;;;;;;;;;;5054977;28;20252;-84
2021/11/20 08:46:09;;;;;;;1.75;1.65;;;;;;;;;;5054145;28;20178;-84
2021/11/20 08:48:38;;;;;;;1.55;1.45;;;;;;;;;;5054785;28;20260;-85
2021/11/20 08:51:12;;;;;;;2.08;1.98;;;;;;;;;;5055405;28;20224;-84
2021/11/20 08:53:41;;;;;;;1.95;1.85;;;;;;;;;;5054953;28;20229;-85
2021/11/20 08:56:09;;;;;;;2.38;2.17;;;;;;;;;;5055099;28;20228;-84
2021/11/20 08:58:38;;;;;;;2.47;2.28;;;;;;;;;;5055732;28;20225;-85
2021/11/20 09:01:09;;;;;;;3.63;3.33;;;;;;;;;;5055590;28;20186;-85
2021/11/20 09:03:43;;;;;;;3.30;3.10;;;;;;;;;;5055112;28;20643;-84
2021/11/20 09:06:19;;;;;;;3.13;2.92;;;;;;;;;;5056609;28;20284;-84
2021/11/20 09:08:54;;;;;;;4.10;3.78;;;;;;;;;;5050640;28;20268;-84
2021/11/20 09:11:28;;;;;;;3.88;3.58;;;;;;;;;;5054892;28;20224;-85
2021/11/20 09:14:04;;;;;;;3.63;3.42;;;;;;;;;;5057196;28;20213;-85
2021/11/20 09:16:34;;;;;;;3.10;2.90;;;;;;;;;;5056267;28;20588;-85
2021/11/20 09:19:02;;;;;;;5.78;5.38;;;;;;;;;;5054567;28;20213;-84
2021/11/20 09:21:30;;;;;;;5.30;4.80;;;;;;;;;;5055185;28;20221;-84
2021/11/20 09:24:00;;;;;;;4.93;4.55;;;;;;;;;;5055132;28;20276;-84
2021/11/20 09:26:29;;;;;;;5.65;5.25;;;;;;;;;;5054666;28;20277;-83
2021/11/20 09:28:57;;;;;;;3.50;3.30;;;;;;;;;;5054937;28;20225;-84
2021/11/20 09:31:27;;;;;;;5.18;4.68;;;;;;;;;;5056428;28;20281;-82
2021/11/20 09:33:56;;;;;;;4.22;3.88;;;;;;;;;;5057994;28;20224;-83
2021/11/20 09:36:24;;;;;;;3.45;3.17;;;;;;;;;;5057601;28;20194;-84
2021/11/20 09:38:52;;;;;;;3.80;3.50;;;;;;;;;;5058400;28;20655;-84
2021/11/20 09:41:26;;;;;;;2.88;2.67;;;;;;;;;;5057941;28;20232;-84
2021/11/20 09:43:59;;;;;;;3.42;3.22;;;;;;;;;;5058007;28;20244;-83
2021/11/20 09:46:31;;;;;;;3.65;3.35;;;;;;;;;;5058131;28;20243;-83
2021/11/20 09:49:03;;;;;;;3.65;3.35;;;;;;;;;;5057298;28;20245;-83
2021/11/20 09:51:36;;;;;;;2.85;2.65;;;;;;;;;;5057989;28;20634;-84
2021/11/20 09:54:09;;;;;;;4.25;3.83;;;;;;;;;;5059145;28;20285;-84
2021/11/20 09:56:46;;;;;;;4.25;3.90;;;;;;;;;;5056566;28;20385;-84
2021/11/20 09:59:25;;;;;;;3.40;3.10;;;;;;;;;;5056688;28;20248;-83
2021/11/20 10:02:01;;;;;;;3.42;3.17;;;;;;;;;;5058068;28;20185;-84
2021/11/20 10:04:34;;;;;;;3.50;3.22;;;;;;;;;;5057540;28;20217;-83
2021/11/20 10:07:17;;;;;;;3.53;3.22;;;;;;;;;;5057100;28;20273;-84
2021/11/20 10:09:51;;;;;;;2.83;2.63;;;;;;;;;;5057131;28;20275;-83
2021/11/20 10:12:27;;;;;;;2.60;2.40;;;;;;;;;;5057285;28;20221;-84
2021/11/20 10:14:59;;;;;;;3.40;2.95;;;;;;;;;;5057942;28;20212;-84
2021/11/20 10:17:39;;;;;;;3.20;3.00;;;;;;;;;;5058784;28;20263;-83
2021/11/20 10:20:33;;;;;;;4.10;3.80;;;;;;;;;;5051514;28;20285;-83
2021/11/20 10:23:07;;;;;;;3.22;3.03;;;;;;;;;;5052985;28;20710;-84
2021/11/20 10:26:22;;;;;;;3.13;2.92;;;;;;;;;;5057240;28;20634;-84
2021/11/20 10:29:09;;;;;;;3.15;2.95;;;;;;;;;;5056894;28;20253;-84
2021/11/20 10:31:43;;;;;;;3.42;3.17;;;;;;;;;;5057108;28;20222;-83
2021/11/20 10:34:22;;;;;;;3.65;3.35;;;;;;;;;;5057096;28;20210;-83
2021/11/20 10:36:53;;;;;;;3.45;2.70;;;;;;;;;;5058085;28;20201;-83
2021/11/20 10:39:25;;;;;;;3.10;2.90;;;;;;;;;;5053731;28;20257;-83
2021/11/20 10:41:59;;;;;;;4.10;3.70;;;;;;;;;;5055120;28;20273;-83
2021/11/20 10:44:34;;;;;;;2.25;2.15;;;;;;;;;;5057657;28;20240;-83
2021/11/20 10:47:13;;;;;;;2.90;2.70;;;;;;;;;;5039368;28;20280;-83
2021/11/20 10:50:15;;;;;;;2.50;2.30;;;;;;;;;;5056796;28;20222;-83
2021/11/20 10:53:18;;;;;;;3.22;2.95;;;;;;;;;;5057643;28;20213;-83
2021/11/20 10:55:52;;;;;;;2.30;2.20;;;;;;;;;;5052777;28;20228;-82
2021/11/20 10:58:51;;;;;;;1.80;1.70;;;;;;;;;;5056155;28;20189;-82
2021/11/20 11:02:16;;;;;;;2.25;2.15;;;;;;;;;;5056041;28;20218;-83
2021/11/20 11:05:24;;;;;;;3.15;2.85;;;;;;;;;;5013548;28;20210;-82
2021/11/20 11:08:00;;;;;;;2.72;2.53;;;;;;;;;;5057030;28;20217;-83
2021/11/20 11:10:35;;;;;;;2.95;2.70;;;;;;;;;;5055709;28;20260;-82
2021/11/20 11:13:09;;;;;;;2.28;2.15;;;;;;;;;;5056114;28;20231;-84
2021/11/20 11:15:56;;;;;;;3.13;2.92;;;;;;;;;;5056677;28;20181;-84
2021/11/20 11:18:36;;;;;;;4.45;4.05;;;;;;;;;;5056829;28;20214;-84
2021/11/20 11:21:56;;;;;;;3.22;3.00;;;;;;;;;;5062834;28;20189;-85
2021/11/20 11:25:13;;;;;;;2.70;2.50;;;;;;;;;;5042231;28;20284;-84
2021/11/20 11:27:57;;;;;;;4.22;3.92;;;;;;;;;;5056480;28;20237;-84
2021/11/20 11:30:29;;;;;;;4.40;4.10;;;;;;;;;;5055517;28;20218;-83
2021/11/20 11:32:57;;;;;;;4.90;4.50;;;;;;;;;;5056049;28;20210;-83
2021/11/20 11:35:34;;;;;;;3.50;3.20;;;;;;;;;;5056394;28;20241;-84
2021/11/20 11:39:10;;;;;;;4.45;4.03;;;;;;;;;;5056014;28;20225;-84
2021/11/20 11:41:47;;;;;;;3.05;2.85;;;;;;;;;;5046811;28;20233;-84
2021/11/20 11:44:33;;;;;;;2.88;2.67;;;;;;;;;;5056629;28;20224;-84
2021/11/20 11:47:17;;;;;;;5.50;4.85;;;;;;;;;;5055716;28;20706;-84
2021/11/20 11:50:00;;;;;;;6.53;5.93;;;;;;;;;;5053018;28;20274;-84
2021/11/20 11:52:50;;;;;;;6.28;5.68;;;;;;;;;;5055558;28;20193;-84
2021/11/20 11:55:43;;;;;;;4.75;4.35;;;;;;;;;;5056836;28;20196;-84
2021/11/20 11:58:58;;;;;;;4.28;3.97;;;;;;;;;;5056235;28;20193;-84
2021/11/20 12:01:47;;;;;;;4.82;4.43;;;;;;;;;;5013431;28;20221;-83
2021/11/20 12:04:19;;;;;;;4.68;4.30;;;;;;;;;;5056131;28;20237;-83
2021/11/20 12:07:14;;;;;;;3.85;3.55;;;;;;;;;;5055894;28;20297;-84
2021/11/20 12:09:48;;;;;;;4.32;3.92;;;;;;;;;;5053360;28;20268;-84
2021/11/20 12:12:31;;;;;;;5.53;5.03;;;;;;;;;;5056219;28;20190;-85
2021/11/20 12:15:11;;;;;;;6.20;5.68;;;;;;;;;;5052831;28;20229;-84
2021/11/20 12:17:59;;;;;;;6.30;5.28;;;;;;;;;;5055574;28;20236;-84
2021/11/20 12:20:38;;;;;;;6.97;6.28;;;;;;;;;;5056039;28;20210;-83
2021/11/20 12:23:27;;;;;;;6.75;6.10;;;;;;;;;;5055999;28;20206;-83
2021/11/20 12:26:17;;;;;;;5.93;5.43;;;;;;;;;;5054516;28;20202;-83
2021/11/20 12:29:19;;;;;;;6.25;5.65;;;;;;;;;;5056334;28;20257;-84
2021/11/20 12:32:07;;;;;;;6.55;5.95;;;;;;;;;;5056450;28;20229;-84
2021/11/20 12:34:54;;;;;;;5.72;5.22;;;;;;;;;;5055623;28;20182;-83
2021/11/20 12:37:54;;;;;;;6.47;5.85;;;;;;;;;;5035458;28;20190;-83
2021/11/20 12:40:40;;;;;;;7.35;6.63;;;;;;;;;;5020844;28;20286;-84
2021/11/20 12:43:49;;;;;;;7.30;6.60;;;;;;;;;;5036128;28;20624;-84
2021/11/20 12:46:56;;;;;;;8.90;8.00;;;;;;;;;;5045511;28;20233;-83
2021/11/20 12:49:40;;;;;;;7.57;6.88;;;;;;;;;;5051979;28;20221;-83
2021/11/20 12:52:27;;;;;;;8.02;6.47;;;;;;;;;;5034742;28;20281;-83
2021/11/20 12:55:04;;;;;;;6.72;6.10;;;;;;;;;;5035811;28;20210;-83
2021/11/20 12:57:43;;;;;;;7.60;6.80;;;;;;;;;;5049113;28;20217;-83
2021/11/20 13:00:22;;;;;;;8.02;7.32;;;;;;;;;;5055866;28;20209;-83
2021/11/20 13:03:01;;;;;;;7.88;7.13;;;;;;;;;;5055790;28;20236;-83
2021/11/20 13:05:33;;;;;;;8.27;7.32;;;;;;;;;;5056866;28;20675;-84
2021/11/20 13:08:05;;;;;;;7.18;6.47;;;;;;;;;;5061285;28;20190;-83
2021/11/20 13:10:44;;;;;;;9.80;8.65;;;;;;;;;;5059612;28;20252;-84
2021/11/20 13:13:22;;;;;;;8.57;7.75;;;;;;;;;;5060018;28;20636;-84
2021/11/20 13:16:41;;;;;;;6.72;6.10;;;;;;;;;;5060256;28;20213;-83
2021/11/20 13:19:26;;;;;;;8.20;7.40;;;;;;;;;;5053509;28;20647;-83
2021/11/20 13:22:14;;;;;;;10.65;9.55;;;;;;;;;;5061105;28;20202;-83
2021/11/20 13:24:55;;;;;;;10.82;9.18;;;;;;;;;;5058375;28;20193;-84
2021/11/20 13:27:56;;;;;;;7.78;6.97;;;;;;;;;;5059828;28;20233;-84
2021/11/20 13:30:28;;;;;;;9.68;8.75;;;;;;;;;;4997942;28;20251;-84
2021/11/20 13:32:59;;;;;;;8.15;7.35;;;;;;;;;;5047955;28;20248;-84
2021/11/20 13:35:29;;;;;;;7.95;7.10;;;;;;;;;;5050006;28;20639;-83
2021/11/20 13:38:02;;;;;;;12.30;11.10;;;;;;;;;;5058994;28;20185;-84
2021/11/20 13:40:34;;;;;;;22.55;20.23;;;;;;;;;;5059698;28;20218;-84
2021/11/20 13:43:04;;;;;;;21.48;19.23;;;;;;;;;;5059819;28;21587;-84
2021/11/20 13:45:32;;;;;;;15.05;12.60;;;;;;;;;;5056430;28;20256;-84
2021/11/20 13:48:00;;;;;;;10.20;9.13;;;;;;;;;;5059091;28;20699;-84
2021/11/20 13:50:40;;;;;;;9.10;8.30;;;;;;;;;;5058546;28;20225;-84
2021/11/20 13:53:14;;;;;;;9.38;8.48;;;;;;;;;;5058953;28;20190;-84
2021/11/20 13:55:46;;;;;;;11.48;10.07;;;;;;;;;;5059226;28;20647;-84
2021/11/20 13:58:23;;;;;;;8.98;8.05;;;;;;;;;;5058931;28;20280;-83
2021/11/20 14:00:53;;;;;;;9.00;8.20;;;;;;;;;;5058971;28;20244;-84
2021/11/20 14:03:21;;;;;;;8.30;7.50;;;;;;;;;;5058662;28;20240;-83
2021/11/20 14:05:49;;;;;;;12.48;11.20;;;;;;;;;;5058312;28;20217;-83
2021/11/20 14:08:17;;;;;;;13.82;11.30;;;;;;;;;;5068946;28;20217;-83
2021/11/20 14:10:58;;;;;;;15.73;13.23;;;;;;;;;;5078703;28;20193;-83
2021/11/20 14:13:32;;;;;;;55.40;39.08;;;;;;;;;;5060492;28;20198;-83
2021/11/20 14:16:00;;;;;;;22.08;15.73;;;;;;;;;;5057546;28;20265;-83
2021/11/20 14:18:29;;;;;;;15.65;13.02;;;;;;;;;;5049652;28;20221;-83
2021/11/20 14:21:01;;;;;;;13.77;11.05;;;;;;;;;;5057544;28;20190;-83
2021/11/20 14:23:32;;;;;;;10.70;9.32;;;;;;;;;;5057603;28;20206;-83
2021/11/20 14:26:03;;;;;;;9.13;7.78;;;;;;;;;;5058030;28;20204;-83
2021/11/20 14:28:38;;;;;;;8.13;6.93;;;;;;;;;;5057776;28;20225;-83
2021/11/20 14:31:11;;;;;;;8.35;7.55;;;;;;;;;;5057565;28;20182;-83
2021/11/20 14:33:51;;;;;;;11.10;10.02;;;;;;;;;;5057534;28;20217;-83
2021/11/20 14:36:20;;;;;;;11.48;10.27;;;;;;;;;;5057562;28;20221;-82
2021/11/20 14:38:52;;;;;;;7.88;7.07;;;;;;;;;;5057601;28;20668;-83
2021/11/20 14:41:20;;;;;;;8.07;7.28;;;;;;;;;;5059988;28;20190;-83
2021/11/20 14:43:49;;;;;;;8.07;7.28;;;;;;;;;;5052403;28;20237;-83
2021/11/20 14:46:19;;;;;;;7.05;6.43;;;;;;;;;;5055807;28;20237;-83
2021/11/20 14:48:47;;;;;;;6.72;6.00;;;;;;;;;;5057754;28;20253;-83
2021/11/20 14:51:15;;;;;;;6.65;6.05;;;;;;;;;;5057136;28;20517;-82
2021/11/20 14:53:43;;;;;;;7.35;6.68;;;;;;;;;;5057342;28;20228;-82
2021/11/20 14:56:14;;;;;;;7.95;7.25;;;;;;;;;;5056952;28;20206;-82
2021/11/20 14:58:44;;;;;;;5.78;5.20;;;;;;;;;;5070387;28;20251;-82
2021/11/20 15:01:13;;;;;;;5.20;4.80;;;;;;;;;;5075671;28;20707;-82
2021/11/20 15:03:42;;;;;;;5.07;4.65;;;;;;;;;;5072816;28;20185;-83
2021/11/20 15:06:12;;;;;;;7.43;6.72;;;;;;;;;;5036452;28;20716;-83
2021/11/20 15:08:40;;;;;;;5.72;5.32;;;;;;;;;;5049323;28;21004;-82
2021/11/20 15:11:08;;;;;;;6.15;5.43;;;;;;;;;;5056201;28;20288;-82
2021/11/20 15:13:36;;;;;;;5.13;4.72;;;;;;;;;;5057958;28;20229;-83
2021/11/20 15:16:04;;;;;;;6.68;6.07;;;;;;;;;;5057771;28;20243;-83
2021/11/20 15:18:34;;;;;;;7.15;6.55;;;;;;;;;;5055721;28;20232;-82